Time;durP1;ratioP1;P1;durP2;ratioP2;P2;SDS_P1;SDS_P2;PMS_P1;PMS_P2;Temp;Humidity;BMP_temperature;BMP_pressure;BME280_temperature;BME280_humidity;BME280_pressure;Samples;Min_cycle;Max_cycle;Signal;HPM_P1;HPM_P2
2023/12/21 00:02:24;;;;;;;23.67;14.35;;;;;;;;;;10292157;28;20406;-86
2023/12/21 00:07:26;;;;;;;26.60;14.90;;;;;;;;;;10285926;28;20522;-87
2023/12/21 00:12:31;;;;;;;21.55;13.93;;;;;;;;;;10287602;28;20487;-86
2023/12/21 00:17:33;;;;;;;22.10;14.17;;;;;;;;;;10283468;28;20407;-86
2023/12/21 00:22:36;;;;;;;23.15;14.43;;;;;;;;;;10287937;28;20450;-87
2023/12/21 00:27:40;;;;;;;23.60;14.53;;;;;;;;;;10288039;28;20398;-87
2023/12/21 00:32:42;;;;;;;22.10;14.10;;;;;;;;;;10287909;28;20479;-87
2023/12/21 00:37:45;;;;;;;26.95;14.23;;;;;;;;;;10282079;28;20953;-87
2023/12/21 00:42:49;;;;;;;21.45;14.15;;;;;;;;;;10282267;28;20445;-86
2023/12/21 00:47:51;;;;;;;21.60;13.40;;;;;;;;;;10287543;28;20410;-87
2023/12/21 00:52:53;;;;;;;24.10;13.70;;;;;;;;;;10287277;28;20478;-87
2023/12/21 00:57:57;;;;;;;21.38;13.60;;;;;;;;;;10278224;28;20485;-87
2023/12/21 01:03:00;;;;;;;22.02;13.15;;;;;;;;;;10281756;28;20803;-87
2023/12/21 01:08:02;;;;;;;21.10;12.90;;;;;;;;;;10283955;28;20871;-87
2023/12/21 01:13:07;;;;;;;21.13;12.77;;;;;;;;;;10286289;28;20435;-87
2023/12/21 01:18:09;;;;;;;20.33;12.98;;;;;;;;;;10298354;28;20457;-87
2023/12/21 01:23:12;;;;;;;18.92;12.20;;;;;;;;;;10284557;28;20415;-87
2023/12/21 01:28:16;;;;;;;17.80;11.52;;;;;;;;;;10282523;28;21022;-87
2023/12/21 01:33:18;;;;;;;21.27;11.47;;;;;;;;;;10282742;28;20434;-87
2023/12/21 01:38:21;;;;;;;17.73;11.23;;;;;;;;;;10277000;28;20420;-87
2023/12/21 01:43:25;;;;;;;16.58;10.57;;;;;;;;;;10283593;28;20410;-87
2023/12/21 01:48:30;;;;;;;18.10;11.35;;;;;;;;;;10285470;28;20936;-86
2023/12/21 01:53:33;;;;;;;15.77;10.90;;;;;;;;;;10283545;28;20773;-87
2023/12/21 01:58:38;;;;;;;16.45;9.80;;;;;;;;;;10286018;28;20418;-87
2023/12/21 02:03:41;;;;;;;14.35;9.98;;;;;;;;;;10286309;28;20437;-86
2023/12/21 02:08:44;;;;;;;16.07;10.43;;;;;;;;;;10278513;28;20964;-87
2023/12/21 02:13:47;;;;;;;16.13;9.75;;;;;;;;;;10290253;28;20426;-87
2023/12/21 02:18:50;;;;;;;14.90;9.77;;;;;;;;;;10289762;28;20418;-87
2023/12/21 02:23:55;;;;;;;12.95;8.82;;;;;;;;;;10287303;28;20967;-87
2023/12/21 02:28:59;;;;;;;13.38;9.45;;;;;;;;;;10300949;28;20457;-87
2023/12/21 02:34:01;;;;;;;13.65;8.98;;;;;;;;;;10291799;28;20470;-87
2023/12/21 02:39:03;;;;;;;15.07;9.13;;;;;;;;;;10276503;28;20454;-87
2023/12/21 02:44:07;;;;;;;15.02;9.13;;;;;;;;;;10280839;28;20915;-87
2023/12/21 02:49:10;;;;;;;12.38;8.93;;;;;;;;;;10292399;28;20770;-87
2023/12/21 02:54:12;;;;;;;13.23;8.40;;;;;;;;;;10289825;28;20504;-87
2023/12/21 02:59:16;;;;;;;12.52;8.73;;;;;;;;;;10291618;28;20407;-87
2023/12/21 03:04:18;;;;;;;13.48;8.02;;;;;;;;;;10290332;28;20877;-86
2023/12/21 03:09:21;;;;;;;10.50;7.43;;;;;;;;;;10288881;28;20423;-87
2023/12/21 03:14:25;;;;;;;11.77;7.30;;;;;;;;;;10290263;28;20438;-87
2023/12/21 03:19:27;;;;;;;13.47;7.83;;;;;;;;;;10290063;28;20451;-87
2023/12/21 03:24:30;;;;;;;12.43;7.35;;;;;;;;;;10285674;28;20521;-87
2023/12/21 03:29:34;;;;;;;10.00;6.25;;;;;;;;;;10287108;28;20415;-87
2023/12/21 03:34:36;;;;;;;10.98;6.90;;;;;;;;;;10289202;28;20635;-87
2023/12/21 03:39:38;;;;;;;11.52;6.88;;;;;;;;;;10281700;28;20805;-87
2023/12/21 03:44:42;;;;;;;10.82;6.90;;;;;;;;;;10292370;28;20418;-86
2023/12/21 03:49:45;;;;;;;12.02;7.13;;;;;;;;;;10288249;28;20411;-87
2023/12/21 03:54:48;;;;;;;9.70;6.53;;;;;;;;;;10285716;28;20473;-86
2023/12/21 03:59:51;;;;;;;12.50;7.25;;;;;;;;;;10289649;28;20506;-86
2023/12/21 04:04:54;;;;;;;12.27;7.22;;;;;;;;;;10288530;28;20446;-87
2023/12/21 04:09:56;;;;;;;10.77;7.07;;;;;;;;;;10288119;28;20482;-86
2023/12/21 04:15:00;;;;;;;11.38;7.22;;;;;;;;;;10282371;28;20946;-87
2023/12/21 04:20:03;;;;;;;9.65;7.07;;;;;;;;;;10283058;28;20885;-86
2023/12/21 04:25:06;;;;;;;11.40;7.33;;;;;;;;;;10286096;28;20430;-86
2023/12/21 04:30:11;;;;;;;9.35;6.85;;;;;;;;;;10287813;28;20406;-87
2023/12/21 04:35:13;;;;;;;11.95;6.68;;;;;;;;;;10286710;28;20422;-86
2023/12/21 04:40:16;;;;;;;12.25;7.65;;;;;;;;;;10267009;28;20406;-87
2023/12/21 04:45:20;;;;;;;9.77;7.05;;;;;;;;;;10284462;28;20422;-87
2023/12/21 04:50:22;;;;;;;10.80;7.43;;;;;;;;;;10283547;28;20465;-86
2023/12/21 04:55:25;;;;;;;11.20;7.13;;;;;;;;;;10282099;28;20971;-87
2023/12/21 05:00:29;;;;;;;11.03;7.23;;;;;;;;;;10291145;28;20418;-87
2023/12/21 05:05:31;;;;;;;11.27;6.97;;;;;;;;;;10287520;28;20410;-87
2023/12/21 05:10:34;;;;;;;11.35;6.85;;;;;;;;;;10284533;28;20426;-87
2023/12/21 05:15:37;;;;;;;12.97;7.07;;;;;;;;;;10287239;28;20430;-87
2023/12/21 05:20:40;;;;;;;13.70;7.80;;;;;;;;;;10281822;28;20476;-87
2023/12/21 05:25:42;;;;;;;13.70;9.18;;;;;;;;;;10285573;28;20423;-87
2023/12/21 05:30:47;;;;;;;18.27;10.85;;;;;;;;;;10287540;28;20905;-86
2023/12/21 05:35:49;;;;;;;16.93;10.47;;;;;;;;;;10283467;28;20402;-87
2023/12/21 05:40:51;;;;;;;15.05;10.52;;;;;;;;;;10283862;28;20477;-87
2023/12/21 05:45:55;;;;;;;15.02;10.02;;;;;;;;;;10286991;28;20574;-87
2023/12/21 05:50:57;;;;;;;17.85;10.90;;;;;;;;;;10293591;28;20476;-87
2023/12/21 05:56:00;;;;;;;22.10;13.40;;;;;;;;;;10289114;28;20418;-87
2023/12/21 06:01:04;;;;;;;14.85;9.60;;;;;;;;;;10292731;28;20492;-87
2023/12/21 06:06:06;;;;;;;14.15;8.85;;;;;;;;;;10289510;28;20469;-86
2023/12/21 06:11:09;;;;;;;14.10;9.10;;;;;;;;;;10283284;28;21058;-85
2023/12/21 06:16:14;;;;;;;13.48;8.82;;;;;;;;;;10293125;28;20450;-86
2023/12/21 06:21:16;;;;;;;13.75;9.43;;;;;;;;;;10294912;28;20406;-87
2023/12/21 06:26:19;;;;;;;11.65;8.38;;;;;;;;;;10285428;28;20414;-85
2023/12/21 06:31:23;;;;;;;11.30;8.15;;;;;;;;;;10289292;28;20458;-87
2023/12/21 06:36:26;;;;;;;12.20;8.45;;;;;;;;;;10293544;28;20583;-92
2023/12/21 06:41:29;;;;;;;17.40;9.52;;;;;;;;;;10287722;28;20781;-85
2023/12/21 06:46:33;;;;;;;13.70;8.82;;;;;;;;;;10287551;28;20407;-84
2023/12/21 06:51:35;;;;;;;43.92;27.65;;;;;;;;;;10288609;28;20940;-84
2023/12/21 06:56:38;;;;;;;21.27;12.43;;;;;;;;;;10285709;28;20477;-85
2023/12/21 07:01:42;;;;;;;14.85;10.23;;;;;;;;;;10285219;28;20986;-84
2023/12/21 07:06:44;;;;;;;17.85;9.25;;;;;;;;;;10285493;28;20476;-84
2023/12/21 07:11:46;;;;;;;20.43;12.77;;;;;;;;;;10286623;28;20454;-85
2023/12/21 07:16:50;;;;;;;15.93;10.93;;;;;;;;;;10290544;28;20447;-84
2023/12/21 07:21:53;;;;;;;12.90;8.15;;;;;;;;;;10290473;28;20430;-84
2023/12/21 07:26:55;;;;;;;15.02;9.52;;;;;;;;;;10287469;28;20485;-85
2023/12/21 07:31:59;;;;;;;54.97;28.92;;;;;;;;;;10289429;28;20466;-85
2023/12/21 07:37:01;;;;;;;22.25;14.32;;;;;;;;;;10289526;28;20469;-84
2023/12/21 07:42:04;;;;;;;15.30;9.15;;;;;;;;;;10289538;28;20418;-84
2023/12/21 07:47:09;;;;;;;13.68;8.27;;;;;;;;;;10285541;28;20423;-83
2023/12/21 07:52:11;;;;;;;16.63;9.35;;;;;;;;;;10286374;28;20435;-84
2023/12/21 07:57:14;;;;;;;30.27;18.83;;;;;;;;;;10286161;28;20833;-84
2023/12/21 08:02:18;;;;;;;16.58;10.90;;;;;;;;;;10276662;28;20445;-83
2023/12/21 08:07:20;;;;;;;11.85;7.78;;;;;;;;;;10286732;28;20418;-85
2023/12/21 08:12:23;;;;;;;12.65;7.90;;;;;;;;;;10286887;28;20894;-85
2023/12/21 08:17:27;;;;;;;14.13;8.05;;;;;;;;;;10287904;28;20415;-84
2023/12/21 08:22:29;;;;;;;12.32;7.97;;;;;;;;;;10286042;28;20438;-84
2023/12/21 08:27:32;;;;;;;16.75;8.27;;;;;;;;;;10286888;28;20493;-85
2023/12/21 08:32:36;;;;;;;12.98;8.00;;;;;;;;;;10287360;28;20529;-84
2023/12/21 08:37:38;;;;;;;14.83;7.70;;;;;;;;;;10287806;28;20482;-85
2023/12/21 08:42:42;;;;;;;12.85;9.02;;;;;;;;;;10285145;28;20414;-85
2023/12/21 08:47:46;;;;;;;14.65;9.50;;;;;;;;;;10286442;28;20489;-84
2023/12/21 08:52:49;;;;;;;14.07;8.90;;;;;;;;;;10267405;28;20524;-84
2023/12/21 08:57:51;;;;;;;14.52;8.88;;;;;;;;;;10275126;28;20940;-83
2023/12/21 09:02:55;;;;;;;13.97;9.40;;;;;;;;;;10270977;28;20454;-85
2023/12/21 09:07:57;;;;;;;14.48;8.27;;;;;;;;;;10279311;28;20454;-84
2023/12/21 09:13:00;;;;;;;16.67;10.63;;;;;;;;;;10278103;28;20472;-85
2023/12/21 09:18:04;;;;;;;17.23;11.67;;;;;;;;;;10281267;28;20460;-84
2023/12/21 09:23:06;;;;;;;19.53;12.93;;;;;;;;;;10277411;28;20471;-84
2023/12/21 09:28:09;;;;;;;52.55;23.73;;;;;;;;;;10284947;28;20489;-84
2023/12/21 09:33:13;;;;;;;20.67;13.77;;;;;;;;;;10280650;28;20459;-85
2023/12/21 09:38:15;;;;;;;27.25;15.07;;;;;;;;;;10283994;28;20423;-85
2023/12/21 09:43:19;;;;;;;30.97;17.57;;;;;;;;;;10277948;28;20414;-85
2023/12/21 09:48:25;;;;;;;19.63;11.82;;;;;;;;;;10278116;28;20474;-84
2023/12/21 09:53:28;;;;;;;19.13;11.07;;;;;;;;;;10274582;28;20596;-85
2023/12/21 09:58:32;;;;;;;20.00;11.02;;;;;;;;;;10282436;28;20833;-85
2023/12/21 10:03:36;;;;;;;20.50;12.98;;;;;;;;;;10281061;28;20972;-85
2023/12/21 10:08:40;;;;;;;21.02;12.55;;;;;;;;;;10282829;28;20461;-85
2023/12/21 10:13:47;;;;;;;22.83;13.73;;;;;;;;;;10279908;28;20537;-85
2023/12/21 10:18:51;;;;;;;24.08;13.98;;;;;;;;;;10282035;28;20486;-84
2023/12/21 10:23:56;;;;;;;23.17;14.30;;;;;;;;;;10283937;28;20411;-85
2023/12/21 10:28:58;;;;;;;17.40;10.77;;;;;;;;;;10273071;28;20457;-84
2023/12/21 10:34:02;;;;;;;16.92;11.07;;;;;;;;;;10278881;28;20454;-83
2023/12/21 10:39:05;;;;;;;18.23;11.10;;;;;;;;;;10289741;28;20420;-84
2023/12/21 10:44:07;;;;;;;17.63;11.10;;;;;;;;;;10290524;28;20411;-85
2023/12/21 10:49:12;;;;;;;22.23;12.15;;;;;;;;;;10286517;28;20953;-85
2023/12/21 10:54:18;;;;;;;21.00;11.82;;;;;;;;;;10288549;28;20426;-85
2023/12/21 10:59:21;;;;;;;17.77;11.73;;;;;;;;;;10290931;28;20451;-85
2023/12/21 11:04:29;;;;;;;18.70;11.75;;;;;;;;;;10289148;28;20407;-84
2023/12/21 11:09:32;;;;;;;19.27;11.80;;;;;;;;;;10276395;28;20450;-85
2023/12/21 11:14:35;;;;;;;19.42;11.95;;;;;;;;;;10288812;28;20453;-85
2023/12/21 11:19:42;;;;;;;19.73;12.63;;;;;;;;;;10277734;28;20408;-85
2023/12/21 11:24:44;;;;;;;20.13;12.90;;;;;;;;;;10284307;28;20488;-86
2023/12/21 11:29:47;;;;;;;20.77;12.30;;;;;;;;;;10286936;28;20830;-85
2023/12/21 11:34:51;;;;;;;21.40;12.80;;;;;;;;;;10283273;28;20506;-85
2023/12/21 11:39:58;;;;;;;21.55;12.00;;;;;;;;;;10287664;28;20421;-84
2023/12/21 11:45:02;;;;;;;20.88;12.70;;;;;;;;;;10288372;28;20928;-85
2023/12/21 11:50:08;;;;;;;22.35;13.30;;;;;;;;;;10281602;28;20457;-85
2023/12/21 11:55:11;;;;;;;22.90;13.77;;;;;;;;;;10281236;28;20462;-85
2023/12/21 12:00:16;;;;;;;34.20;14.77;;;;;;;;;;10278064;28;20497;-85
2023/12/21 12:05:23;;;;;;;23.03;14.07;;;;;;;;;;10286202;28;20471;-85
2023/12/21 12:10:25;;;;;;;23.63;13.55;;;;;;;;;;10278361;28;20418;-85
2023/12/21 12:15:29;;;;;;;26.05;13.70;;;;;;;;;;10277256;28;20454;-85
2023/12/21 12:20:32;;;;;;;21.93;13.07;;;;;;;;;;10279989;28;20493;-84
2023/12/21 12:25:35;;;;;;;23.98;13.57;;;;;;;;;;10283175;28;20506;-85
2023/12/21 12:30:38;;;;;;;23.70;13.27;;;;;;;;;;10284569;28;20415;-84
2023/12/21 12:35:43;;;;;;;22.45;13.57;;;;;;;;;;10278794;28;20422;-85
2023/12/21 12:40:49;;;;;;;19.07;13.10;;;;;;;;;;10284018;28;20415;-85
2023/12/21 12:45:52;;;;;;;20.13;12.83;;;;;;;;;;10279863;28;20426;-86
2023/12/21 12:50:57;;;;;;;20.60;12.57;;;;;;;;;;10285266;28;20430;-84
2023/12/21 12:55:59;;;;;;;22.65;13.10;;;;;;;;;;10271926;28;20494;-86
2023/12/21 13:01:03;;;;;;;28.85;17.60;;;;;;;;;;10280575;28;20418;-86
2023/12/21 13:06:08;;;;;;;19.88;12.57;;;;;;;;;;10278807;28;20420;-86
2023/12/21 13:11:10;;;;;;;23.55;12.60;;;;;;;;;;10273144;28;20411;-86
2023/12/21 13:16:18;;;;;;;21.33;13.45;;;;;;;;;;10280543;28;20901;-85
2023/12/21 13:21:22;;;;;;;26.80;15.45;;;;;;;;;;10283426;28;20410;-84
2023/12/21 13:26:24;;;;;;;23.80;14.95;;;;;;;;;;10281137;28;20485;-85
2023/12/21 13:31:27;;;;;;;28.10;14.52;;;;;;;;;;10280776;28;21173;-84
2023/12/21 13:36:30;;;;;;;26.33;15.27;;;;;;;;;;10280178;28;21003;-85
2023/12/21 13:41:33;;;;;;;24.60;15.10;;;;;;;;;;10276793;28;20482;-85
2023/12/21 13:46:35;;;;;;;24.10;14.87;;;;;;;;;;10277234;28;20548;-85
2023/12/21 13:51:39;;;;;;;26.23;15.48;;;;;;;;;;10274676;28;20558;-85
2023/12/21 13:56:41;;;;;;;23.50;15.27;;;;;;;;;;10289494;23;20879;-86
2023/12/21 14:01:44;;;;;;;25.15;15.75;;;;;;;;;;10268666;28;21010;-85
2023/12/21 14:06:48;;;;;;;23.80;14.98;;;;;;;;;;10256861;28;20459;-85
2023/12/21 14:11:50;;;;;;;26.03;16.27;;;;;;;;;;10903679;23;20981;-93
2023/12/21 14:16:53;;;;;;;25.88;15.80;;;;;;;;;;10295315;28;20431;-92
2023/12/21 14:21:56;;;;;;;24.55;15.13;;;;;;;;;;10277909;28;20469;-92
2023/12/21 14:26:59;;;;;;;27.83;16.45;;;;;;;;;;10278794;28;20428;-91
2023/12/21 14:32:01;;;;;;;29.80;18.08;;;;;;;;;;10279308;28;20474;-93
2023/12/21 14:37:05;;;;;;;30.38;19.60;;;;;;;;;;10278265;28;20428;-93
2023/12/21 14:42:07;;;;;;;30.52;19.27;;;;;;;;;;10282543;28;20781;-93
2023/12/21 14:47:10;;;;;;;35.67;19.50;;;;;;;;;;10279216;28;20481;-93
2023/12/21 14:52:14;;;;;;;29.13;18.52;;;;;;;;;;10275641;28;20891;-92
2023/12/21 14:57:16;;;;;;;28.38;18.15;;;;;;;;;;10281814;28;20426;-93
2023/12/21 15:02:18;;;;;;;32.90;18.90;;;;;;;;;;10272437;28;20869;-93
2023/12/21 15:07:22;;;;;;;30.33;19.20;;;;;;;;;;10283239;28;20439;-91
2023/12/21 15:12:25;;;;;;;33.03;19.20;;;;;;;;;;10265926;28;20986;-90
2023/12/21 15:17:30;;;;;;;30.50;19.05;;;;;;;;;;10274062;28;20863;-91
2023/12/21 15:22:35;;;;;;;31.40;20.25;;;;;;;;;;10265883;28;20412;-90
2023/12/21 15:27:38;;;;;;;33.63;19.37;;;;;;;;;;10276159;28;20415;-89
2023/12/21 15:32:41;;;;;;;31.90;19.40;;;;;;;;;;10268099;28;20415;-89
2023/12/21 15:37:44;;;;;;;28.45;18.88;;;;;;;;;;10281347;28;20489;-89
2023/12/21 15:42:47;;;;;;;33.20;20.85;;;;;;;;;;10269729;28;20477;-88
2023/12/21 15:47:49;;;;;;;32.78;21.55;;;;;;;;;;10265014;28;20506;-87
2023/12/21 15:52:53;;;;;;;34.90;20.42;;;;;;;;;;10259661;28;20445;-87
2023/12/21 15:57:55;;;;;;;31.33;21.05;;;;;;;;;;10254701;28;20551;-89
2023/12/21 16:02:58;;;;;;;33.45;21.38;;;;;;;;;;10264058;28;20502;-88
2023/12/21 16:08:02;;;;;;;32.03;20.77;;;;;;;;;;10262934;28;20557;-87
2023/12/21 16:13:04;;;;;;;32.90;20.53;;;;;;;;;;10254793;28;20474;-87
2023/12/21 16:18:07;;;;;;;34.60;20.95;;;;;;;;;;10262450;28;20460;-88
2023/12/21 16:23:13;;;;;;;39.57;21.37;;;;;;;;;;10268526;28;20485;-91
2023/12/21 16:28:15;;;;;;;35.67;22.17;;;;;;;;;;10264260;28;20541;-91
2023/12/21 16:33:18;;;;;;;42.97;24.58;;;;;;;;;;10259697;28;20551;-91
2023/12/21 16:38:22;;;;;;;37.40;23.90;;;;;;;;;;10261925;28;20473;-89
2023/12/21 16:43:24;;;;;;;38.28;24.05;;;;;;;;;;10265614;28;20446;-92
2023/12/21 16:48:26;;;;;;;38.10;25.55;;;;;;;;;;10264673;28;20463;-91
2023/12/21 16:53:30;;;;;;;41.47;24.27;;;;;;;;;;10252850;28;20473;-92
2023/12/21 16:58:33;;;;;;;41.58;24.73;;;;;;;;;;10260308;28;20522;-92
2023/12/21 17:03:37;;;;;;;42.58;26.42;;;;;;;;;;10264028;28;20407;-91
2023/12/21 17:08:41;;;;;;;44.63;25.17;;;;;;;;;;10263623;28;20453;-90
2023/12/21 17:13:44;;;;;;;44.57;27.20;;;;;;;;;;10254526;28;21018;-91
2023/12/21 17:18:46;;;;;;;43.95;27.42;;;;;;;;;;10254086;28;20507;-96
2023/12/21 17:23:53;;;;;;;43.45;27.85;;;;;;;;;;10270436;28;21117;-94
2023/12/21 17:29:04;;;;;;;55.95;33.40;;;;;;;;;;10263219;28;20423;-94
2023/12/21 17:34:07;;;;;;;53.60;34.23;;;;;;;;;;10261262;28;25100;-92
2023/12/21 17:39:11;;;;;;;55.40;33.72;;;;;;;;;;10264841;28;20426;-95
2023/12/21 17:44:13;;;;;;;53.85;32.90;;;;;;;;;;10278321;28;20968;-95
2023/12/21 17:49:16;;;;;;;51.37;30.93;;;;;;;;;;10271133;28;20467;-89
2023/12/21 17:54:22;;;;;;;46.70;29.45;;;;;;;;;;10256417;28;20867;-90
2023/12/21 17:59:24;;;;;;;48.10;29.23;;;;;;;;;;10256985;28;20475;-89
2023/12/21 18:04:27;;;;;;;44.92;27.60;;;;;;;;;;10258269;28;20941;-89
2023/12/21 18:09:31;;;;;;;44.30;27.90;;;;;;;;;;10264003;28;21025;-88
2023/12/21 18:14:34;;;;;;;47.33;27.38;;;;;;;;;;10252495;28;20481;-88
2023/12/21 18:19:36;;;;;;;47.25;29.85;;;;;;;;;;10254933;28;20476;-88
2023/12/21 18:24:42;;;;;;;54.30;32.22;;;;;;;;;;10254806;28;20988;-89
2023/12/21 18:29:45;;;;;;;52.35;33.13;;;;;;;;;;10260832;28;20410;-90
2023/12/21 18:34:48;;;;;;;52.72;32.45;;;;;;;;;;10274305;28;20419;-80
2023/12/21 18:39:52;;;;;;;59.38;34.20;;;;;;;;;;10277568;28;20452;-91
2023/12/21 18:44:55;;;;;;;53.22;31.60;;;;;;;;;;10271369;28;20493;-92
2023/12/21 18:49:58;;;;;;;61.72;38.00;;;;;;;;;;10270373;28;20501;-92
2023/12/21 18:55:02;;;;;;;58.35;33.05;;;;;;;;;;10275747;28;20446;-91
2023/12/21 19:00:05;;;;;;;61.42;35.92;;;;;;;;;;10280399;28;21018;-92
2023/12/21 19:05:08;;;;;;;69.28;38.45;;;;;;;;;;10268485;28;20455;-89
2023/12/21 19:10:15;;;;;;;63.70;35.75;;;;;;;;;;10275504;28;20424;-96
2023/12/21 19:15:18;;;;;;;60.93;34.10;;;;;;;;;;10271074;28;20426;-95
2023/12/21 19:20:20;;;;;;;56.55;32.38;;;;;;;;;;10267880;28;20448;-94
2023/12/21 19:25:24;;;;;;;62.00;32.43;;;;;;;;;;10261880;28;20464;-91
2023/12/21 19:30:27;;;;;;;54.33;32.85;;;;;;;;;;10264539;28;20508;-91
2023/12/21 19:35:29;;;;;;;55.83;32.97;;;;;;;;;;10262123;28;20462;-92
2023/12/21 19:40:35;;;;;;;55.38;33.10;;;;;;;;;;10262546;28;20422;-90
2023/12/21 19:45:38;;;;;;;64.03;37.55;;;;;;;;;;10265934;28;20449;-92
2023/12/21 19:50:41;;;;;;;59.30;35.63;;;;;;;;;;10269268;28;20434;-92
2023/12/21 19:55:45;;;;;;;54.92;33.72;;;;;;;;;;10278658;28;20450;-91
2023/12/21 20:00:47;;;;;;;80.97;42.50;;;;;;;;;;10268776;28;20973;-91
2023/12/21 20:05:50;;;;;;;57.78;32.90;;;;;;;;;;10266675;28;20408;-90
2023/12/21 20:10:54;;;;;;;52.75;31.13;;;;;;;;;;10264521;28;20454;-90
2023/12/21 20:15:56;;;;;;;53.15;31.08;;;;;;;;;;10277608;28;20422;-91
2023/12/21 20:20:58;;;;;;;58.97;35.78;;;;;;;;;;10283710;28;20452;-89
2023/12/21 20:26:02;;;;;;;52.90;31.15;;;;;;;;;;10268815;28;20954;-91
2023/12/21 20:31:05;;;;;;;50.25;29.05;;;;;;;;;;10265231;28;20500;-92
2023/12/21 20:36:08;;;;;;;57.07;33.83;;;;;;;;;;10262134;28;20514;-90
2023/12/21 20:41:11;;;;;;;46.35;28.77;;;;;;;;;;10267539;28;20423;-91
2023/12/21 20:46:14;;;;;;;47.47;27.70;;;;;;;;;;10282277;28;20907;-93
2023/12/21 20:51:16;;;;;;;51.28;29.52;;;;;;;;;;10257119;28;20509;-92
2023/12/21 20:56:20;;;;;;;54.50;31.85;;;;;;;;;;10265298;28;20480;-93
2023/12/21 21:01:22;;;;;;;54.65;32.03;;;;;;;;;;10269928;28;20613;-90
2023/12/21 21:06:25;;;;;;;50.75;30.52;;;;;;;;;;10272340;28;20411;-93
2023/12/21 21:11:29;;;;;;;58.03;34.47;;;;;;;;;;10264952;28;20908;-94
2023/12/21 21:16:31;;;;;;;56.22;34.00;;;;;;;;;;10262074;28;20462;-93
2023/12/21 21:21:33;;;;;;;57.35;33.55;;;;;;;;;;10283482;28;20415;-93
2023/12/21 21:26:37;;;;;;;56.25;31.88;;;;;;;;;;10275677;28;20426;-92
2023/12/21 21:31:40;;;;;;;56.43;33.93;;;;;;;;;;10278113;28;20414;-92
2023/12/21 21:36:43;;;;;;;57.22;34.63;;;;;;;;;;10262588;28;20513;-91
2023/12/21 21:41:48;;;;;;;58.72;34.20;;;;;;;;;;10270906;28;20469;-92
2023/12/21 21:46:50;;;;;;;59.67;34.33;;;;;;;;;;10267221;28;20932;-92
2023/12/21 21:51:53;;;;;;;53.88;33.67;;;;;;;;;;10269610;28;20513;-92
2023/12/21 21:56:57;;;;;;;56.50;33.80;;;;;;;;;;10263474;28;20444;-92
2023/12/21 22:01:59;;;;;;;53.00;31.97;;;;;;;;;;10262810;28;20755;-92
2023/12/21 22:07:03;;;;;;;53.25;30.75;;;;;;;;;;10276611;28;20916;-92
2023/12/21 22:12:07;;;;;;;56.10;31.63;;;;;;;;;;10262977;28;20461;-93
2023/12/21 22:17:10;;;;;;;49.63;31.17;;;;;;;;;;10268470;28;20499;-92
2023/12/21 22:22:12;;;;;;;49.63;30.15;;;;;;;;;;10262288;28;20416;-92
2023/12/21 22:27:16;;;;;;;52.55;31.23;;;;;;;;;;10276884;28;20434;-92
2023/12/21 22:32:18;;;;;;;49.95;29.65;;;;;;;;;;10268207;28;20765;-92
2023/12/21 22:37:20;;;;;;;50.93;28.43;;;;;;;;;;10270892;28;20428;-93
2023/12/21 22:42:24;;;;;;;47.33;26.67;;;;;;;;;;10282990;28;20447;-91
2023/12/21 22:47:27;;;;;;;53.00;28.97;;;;;;;;;;10268865;28;20406;-93
2023/12/21 22:52:29;;;;;;;44.78;28.63;;;;;;;;;;10276246;28;20414;-92
2023/12/21 22:57:33;;;;;;;50.15;30.45;;;;;;;;;;10277467;28;20456;-92
2023/12/21 23:02:36;;;;;;;47.38;29.65;;;;;;;;;;10276843;28;20410;-92
2023/12/21 23:07:39;;;;;;;42.57;25.83;;;;;;;;;;10278348;28;20457;-92
2023/12/21 23:12:43;;;;;;;40.42;25.75;;;;;;;;;;10259342;28;20404;-92
2023/12/21 23:17:46;;;;;;;39.47;24.80;;;;;;;;;;10289850;28;20433;-93
2023/12/21 23:22:48;;;;;;;40.92;24.85;;;;;;;;;;10279218;28;20408;-93
2023/12/21 23:27:52;;;;;;;41.85;25.95;;;;;;;;;;10288249;28;20396;-93
2023/12/21 23:32:54;;;;;;;43.47;26.00;;;;;;;;;;10311487;28;20420;-90
2023/12/21 23:37:56;;;;;;;42.60;26.02;;;;;;;;;;10260986;28;20427;-93
2023/12/21 23:43:00;;;;;;;41.28;24.95;;;;;;;;;;10260733;28;20978;-93
2023/12/21 23:48:03;;;;;;;41.53;25.53;;;;;;;;;;10277413;28;20415;-93
2023/12/21 23:53:05;;;;;;;41.30;24.73;;;;;;;;;;10276813;28;20405;-93
2023/12/21 23:58:09;;;;;;;39.73;24.60;;;;;;;;;;10277542;28;20499;-93
